createdAt,value
2024-03-12T00:00:48.792Z,63.67
2024-03-12T00:01:51.908Z,53.67
2024-03-12T00:02:54.981Z,40.83
2024-03-12T00:03:59.458Z,41.83
2024-03-12T00:05:09.416Z,39.17
2024-03-12T00:06:12.964Z,35.67
2024-03-12T00:07:18.048Z,37.83
2024-03-12T00:08:21.116Z,37.17
2024-03-12T00:09:24.414Z,37.50
2024-03-12T00:10:28.919Z,38.17
2024-03-12T00:11:32.822Z,39.00
2024-03-12T00:12:37.615Z,38.00
2024-03-12T00:13:41.155Z,38.33
2024-03-12T00:14:44.236Z,39.50
2024-03-12T00:15:48.093Z,40.17
2024-03-12T00:16:51.263Z,41.33
2024-03-12T00:17:56.060Z,42.50
2024-03-12T00:18:59.275Z,45.17
2024-03-12T00:20:07.387Z,54.67
2024-03-12T00:21:10.856Z,57.00
2024-03-12T00:22:13.964Z,57.00
2024-03-12T00:23:17.043Z,66.00
2024-03-12T00:24:20.097Z,78.00
2024-03-12T00:25:23.477Z,79.67
2024-03-12T00:26:26.542Z,74.50
2024-03-12T00:27:29.644Z,71.17
2024-03-12T00:28:34.508Z,69.67
2024-03-12T00:29:37.628Z,68.67
2024-03-12T00:30:44.184Z,68.00
2024-03-12T00:31:47.284Z,67.50
2024-03-12T00:32:50.560Z,66.17
2024-03-12T00:33:53.763Z,68.33
2024-03-12T00:34:56.866Z,68.50
2024-03-12T00:35:59.940Z,72.00
2024-03-12T00:37:03.150Z,74.50
2024-03-12T00:38:06.348Z,84.00
2024-03-12T00:39:11.498Z,84.83
2024-03-12T00:40:15.735Z,89.17
2024-03-12T00:41:18.836Z,85.67
2024-03-12T00:42:24.095Z,83.17
2024-03-12T00:43:27.841Z,73.50
2024-03-12T00:44:31.672Z,59.00
2024-03-12T00:45:38.783Z,61.83
2024-03-12T00:46:42.467Z,73.67
2024-03-12T00:47:46.652Z,78.00
2024-03-12T00:48:49.737Z,78.00
2024-03-12T00:49:53.387Z,77.00
2024-03-12T00:50:57.171Z,75.50
2024-03-12T00:52:00.507Z,78.50
2024-03-12T00:53:04.131Z,87.67
2024-03-12T00:54:07.221Z,89.83
2024-03-12T00:55:11.245Z,95.50
2024-03-12T00:56:16.516Z,99.50
2024-03-12T00:57:21.398Z,97.00
2024-03-12T00:58:24.931Z,96.00
2024-03-12T00:59:28.102Z,94.17
2024-03-12T01:00:35.034Z,104.33
2024-03-12T01:01:38.327Z,116.33
2024-03-12T01:02:41.440Z,115.50
2024-03-12T01:03:44.555Z,105.33
2024-03-12T01:04:47.634Z,97.17
2024-03-12T01:05:50.712Z,97.67
2024-03-12T01:06:54.238Z,97.33
2024-03-12T01:08:02.803Z,96.00
2024-03-12T01:09:07.542Z,94.83
2024-03-12T01:10:11.008Z,94.17
2024-03-12T01:11:14.372Z,95.67
2024-03-12T01:12:17.500Z,102.50
2024-03-12T01:13:21.703Z,115.83
2024-03-12T01:14:24.846Z,121.33
2024-03-12T01:15:28.398Z,121.17
2024-03-12T01:16:31.526Z,117.00
2024-03-12T01:17:35.060Z,114.17
2024-03-12T01:18:39.440Z,102.67
2024-03-12T01:19:43.287Z,85.83
2024-03-12T01:20:46.443Z,85.50
2024-03-12T01:21:50.012Z,85.17
2024-03-12T01:22:55.562Z,70.67
2024-03-12T01:23:58.746Z,62.17
2024-03-12T01:25:02.676Z,62.67
2024-03-12T01:26:07.961Z,63.00
2024-03-12T01:27:11.606Z,67.83
2024-03-12T01:28:14.756Z,73.17
2024-03-12T01:29:18.008Z,76.83
2024-03-12T01:30:25.638Z,92.83
2024-03-12T01:31:28.727Z,108.33
2024-03-12T01:32:32.096Z,116.67
2024-03-12T01:33:36.257Z,128.00
2024-03-12T01:34:39.343Z,129.83
2024-03-12T01:35:42.580Z,124.00
2024-03-12T01:36:48.464Z,124.00
2024-03-12T01:37:58.296Z,125.50
2024-03-12T01:39:08.342Z,129.17
2024-03-12T01:40:21.172Z,136.17
2024-03-12T01:41:25.096Z,134.83
2024-03-12T01:42:28.213Z,134.83
2024-03-12T01:43:31.281Z,132.00
2024-03-12T01:44:36.308Z,129.50
2024-03-12T01:45:39.722Z,127.83
2024-03-12T01:46:43.303Z,125.00
2024-03-12T01:47:47.062Z,113.17
2024-03-12T01:48:50.166Z,101.67
2024-03-12T01:49:53.927Z,99.00
2024-03-12T01:50:57.004Z,101.17
2024-03-12T01:52:00.259Z,102.67
2024-03-12T01:53:07.326Z,92.50
2024-03-12T01:54:10.891Z,89.50
2024-03-12T01:55:15.535Z,84.33
2024-03-12T01:56:18.704Z,57.00
2024-03-12T01:57:21.910Z,50.17
2024-03-12T01:58:24.978Z,52.33
2024-03-12T01:59:28.042Z,56.33
2024-03-12T02:00:34.352Z,30.50
2024-03-12T02:01:38.057Z,14.00
2024-03-12T02:02:46.764Z,7.83
2024-03-12T02:03:52.984Z,6.00
2024-03-12T02:04:57.692Z,5.50
2024-03-12T02:06:01.495Z,5.00
2024-03-12T02:07:05.357Z,5.83
2024-03-12T02:08:08.488Z,6.67
2024-03-12T02:09:13.572Z,8.67
2024-03-12T02:10:18.107Z,9.17
2024-03-12T02:11:21.248Z,4.67
2024-03-12T02:12:24.358Z,1.83
2024-03-12T02:13:27.438Z,1.00
2024-03-12T02:14:30.559Z,1.00
2024-03-12T02:15:35.533Z,1.00
2024-03-12T02:16:40.199Z,1.00
2024-03-12T02:17:43.281Z,1.00
2024-03-12T02:18:46.383Z,1.67
2024-03-12T02:19:49.460Z,2.00
2024-03-12T02:20:52.598Z,2.00
2024-03-12T02:21:55.679Z,2.00
2024-03-12T02:23:00.436Z,2.00
2024-03-12T02:24:03.579Z,1.50
2024-03-12T02:25:08.339Z,1.00
2024-03-12T02:26:12.107Z,1.00
2024-03-12T02:27:15.136Z,1.00
2024-03-12T02:28:18.821Z,1.83
2024-03-12T02:29:21.877Z,3.00
2024-03-12T02:30:25.044Z,2.17
2024-03-12T02:31:28.182Z,2.00
2024-03-12T02:32:31.275Z,2.00
2024-03-12T02:33:35.004Z,2.00
2024-03-12T02:34:38.189Z,2.00
2024-03-12T02:35:41.214Z,2.00
2024-03-12T02:36:44.281Z,2.17
2024-03-12T02:37:47.532Z,52.33
2024-03-12T02:38:50.762Z,100.17
2024-03-12T02:39:53.913Z,83.33
2024-03-12T02:40:56.979Z,124.00
2024-03-12T02:42:00.196Z,89.17
2024-03-12T02:43:03.335Z,68.83
2024-03-12T02:44:06.765Z,31.33
2024-03-12T02:45:16.089Z,14.83
2024-03-12T02:46:22.193Z,8.33
2024-03-12T02:47:26.052Z,4.67
2024-03-12T02:48:29.086Z,3.83
2024-03-12T02:49:32.137Z,3.67
2024-03-12T02:50:35.170Z,4.00
2024-03-12T02:51:38.759Z,4.33
2024-03-12T02:52:43.421Z,5.00
2024-03-12T02:53:46.660Z,5.00
2024-03-12T02:54:49.708Z,5.00
2024-03-12T02:55:52.751Z,5.00
2024-03-12T02:56:55.818Z,6.00
2024-03-12T02:57:59.322Z,7.17
2024-03-12T02:59:02.806Z,9.17
2024-03-12T03:00:14.150Z,13.33
2024-03-12T03:01:18.423Z,18.00
2024-03-12T03:02:21.598Z,22.00
2024-03-12T03:03:24.687Z,22.00
2024-03-12T03:04:29.194Z,22.00
2024-03-12T03:05:32.281Z,22.00
2024-03-12T03:06:35.993Z,22.00
2024-03-12T03:07:41.632Z,22.00
2024-03-12T03:08:44.825Z,21.33
2024-03-12T03:09:47.879Z,21.00
2024-03-12T03:10:51.034Z,20.00
2024-03-12T03:11:54.708Z,19.00
2024-03-12T03:12:57.788Z,17.83
2024-03-12T03:14:01.429Z,16.50
2024-03-12T03:15:05.236Z,15.67
2024-03-12T03:16:08.306Z,14.83
2024-03-12T03:17:11.398Z,14.00
2024-03-12T03:18:14.510Z,13.83
2024-03-12T03:19:18.358Z,12.83
2024-03-12T03:20:21.392Z,12.00
2024-03-12T03:21:25.447Z,11.67
2024-03-12T03:22:29.408Z,11.17
2024-03-12T03:23:32.534Z,11.50
2024-03-12T03:24:38.261Z,11.00
2024-03-12T03:25:41.581Z,11.00
2024-03-12T03:26:44.678Z,11.00
2024-03-12T03:27:47.785Z,10.17
2024-03-12T03:28:50.838Z,10.00
2024-03-12T03:29:58.018Z,9.67
2024-03-12T03:31:01.674Z,9.00
2024-03-12T03:32:07.960Z,9.83
2024-03-12T03:33:12.882Z,10.00
2024-03-12T03:34:19.060Z,10.00
2024-03-12T03:35:22.256Z,10.00
2024-03-12T03:36:25.767Z,11.00
2024-03-12T03:37:34.042Z,11.00
2024-03-12T03:38:41.463Z,10.67
2024-03-12T03:39:44.681Z,10.00
2024-03-12T03:40:48.177Z,10.00
2024-03-12T03:41:52.549Z,9.50
2024-03-12T03:42:57.742Z,9.00
2024-03-12T03:44:00.997Z,9.00
2024-03-12T03:45:04.795Z,9.00
2024-03-12T03:46:07.852Z,9.00
2024-03-12T03:47:10.891Z,9.33
2024-03-12T03:48:13.939Z,10.33
2024-03-12T03:50:20.337Z,14.00
2024-03-12T03:51:23.533Z,15.50
2024-03-12T03:52:26.628Z,19.50
2024-03-12T03:53:29.787Z,24.17
2024-03-12T03:54:32.852Z,27.33
2024-03-12T03:55:36.926Z,33.33
2024-03-12T03:56:39.961Z,43.33
2024-03-12T03:57:43.056Z,49.33
2024-03-12T03:58:46.682Z,46.00
2024-03-12T03:59:51.288Z,44.50
2024-03-12T04:00:54.461Z,46.50
2024-03-12T04:01:57.543Z,46.50
2024-03-12T04:03:00.627Z,44.17
2024-03-12T04:04:12.313Z,42.67
2024-03-12T04:05:15.794Z,38.50
2024-03-12T04:06:22.534Z,26.33
2024-03-12T04:07:26.570Z,19.50
2024-03-12T04:08:32.008Z,19.33
2024-03-12T04:09:35.730Z,14.50
2024-03-12T04:10:38.776Z,10.50
2024-03-12T04:11:42.838Z,7.17
2024-03-12T04:12:46.921Z,5.67
2024-03-12T04:13:55.926Z,6.00
2024-03-12T04:14:59.329Z,6.00
2024-03-12T04:16:02.486Z,6.33
2024-03-12T04:17:05.712Z,7.00
2024-03-12T04:18:09.143Z,7.67
2024-03-12T04:19:12.210Z,8.17
2024-03-12T04:20:17.973Z,9.00
2024-03-12T04:21:22.057Z,9.00
2024-03-12T04:22:25.686Z,9.67
2024-03-12T04:23:28.781Z,11.00
2024-03-12T04:24:32.868Z,14.67
2024-03-12T04:25:36.034Z,16.00
2024-03-12T04:26:39.082Z,15.00
2024-03-12T04:27:42.285Z,14.00
2024-03-12T04:28:45.372Z,14.00
2024-03-12T04:29:48.824Z,14.00
2024-03-12T04:30:52.809Z,14.17
2024-03-12T04:31:56.256Z,16.33
2024-03-12T04:32:59.384Z,40.00
2024-03-12T04:34:02.533Z,56.00
2024-03-12T04:35:06.557Z,47.00
2024-03-12T04:36:15.291Z,40.83
2024-03-12T04:37:18.476Z,37.83
2024-03-12T04:38:21.504Z,37.50
2024-03-12T04:39:33.499Z,39.50
2024-03-12T04:40:36.643Z,116.17
2024-03-12T04:41:39.751Z,196.00
2024-03-12T04:42:46.697Z,122.00
2024-03-12T04:43:50.493Z,83.17
2024-03-12T04:44:54.515Z,80.33
2024-03-12T04:45:57.699Z,79.33
2024-03-12T04:47:01.269Z,199.83
2024-03-12T04:48:04.530Z,293.33
2024-03-12T04:49:08.498Z,160.33
2024-03-12T04:50:15.516Z,138.00
2024-03-12T04:51:19.070Z,226.00
2024-03-12T04:52:22.131Z,252.00
2024-03-12T04:53:25.171Z,225.83
2024-03-12T04:54:28.356Z,176.33
2024-03-12T04:55:35.190Z,215.17
2024-03-12T04:56:38.580Z,216.83
2024-03-12T04:57:41.632Z,193.00
2024-03-12T04:58:44.697Z,177.83
2024-03-12T04:59:49.262Z,153.83
2024-03-12T05:00:52.366Z,135.00
2024-03-12T05:01:56.219Z,123.83
2024-03-12T05:02:59.342Z,104.17
2024-03-12T05:04:08.409Z,72.50
2024-03-12T05:05:25.046Z,82.00
2024-03-12T05:06:28.145Z,98.33
2024-03-12T05:07:31.187Z,107.17
2024-03-12T05:08:34.239Z,120.33
2024-03-12T05:09:37.318Z,137.00
2024-03-12T05:10:40.392Z,138.33
2024-03-12T05:11:43.471Z,135.50
2024-03-12T05:12:46.698Z,113.83
2024-03-12T05:13:49.897Z,112.50
2024-03-12T05:14:53.114Z,135.50
2024-03-12T05:15:56.240Z,190.83
2024-03-12T05:17:00.528Z,217.67
2024-03-12T05:18:04.110Z,230.67
2024-03-12T05:19:11.957Z,238.50
2024-03-12T05:20:15.937Z,238.67
2024-03-12T05:21:19.140Z,236.50
2024-03-12T05:22:23.403Z,250.17
2024-03-12T05:23:26.484Z,245.17
2024-03-12T05:24:30.826Z,220.00
2024-03-12T05:25:43.728Z,212.67
2024-03-12T05:26:49.050Z,189.83
2024-03-12T05:27:52.619Z,159.33
2024-03-12T05:29:02.810Z,149.33
2024-03-12T05:30:15.927Z,154.33
2024-03-12T05:31:23.185Z,155.33
2024-03-12T05:32:26.275Z,155.50
2024-03-12T05:33:31.341Z,159.50
2024-03-12T05:34:40.346Z,159.83
2024-03-12T05:35:52.577Z,170.67
2024-03-12T05:37:05.142Z,196.50
2024-03-12T05:38:23.639Z,204.33
2024-03-12T05:39:49.134Z,159.67
2024-03-12T05:40:58.915Z,141.00
2024-03-12T05:42:20.569Z,149.83
2024-03-12T05:43:42.223Z,182.17
2024-03-12T05:45:03.804Z,197.83
2024-03-12T05:46:25.379Z,179.33
2024-03-12T05:47:48.068Z,116.67
2024-03-12T05:48:52.112Z,97.67
2024-03-12T05:49:56.460Z,97.50
2024-03-12T05:51:00.583Z,106.00
2024-03-12T05:52:04.224Z,76.17
2024-03-12T05:53:07.355Z,92.33
2024-03-12T05:54:10.995Z,99.00
2024-03-12T05:55:16.893Z,111.00
2024-03-12T05:56:21.128Z,108.50
2024-03-12T05:57:24.513Z,100.50
2024-03-12T05:58:27.688Z,100.50
2024-03-12T05:59:31.933Z,103.33
2024-03-12T06:00:35.092Z,103.67
2024-03-12T06:01:38.374Z,89.00
2024-03-12T06:02:43.106Z,69.83
2024-03-12T06:03:46.344Z,71.83
2024-03-12T06:04:49.410Z,80.83
2024-03-12T06:05:52.471Z,77.17
2024-03-12T06:06:55.593Z,88.33
2024-03-12T06:08:01.277Z,127.17
2024-03-12T06:09:04.368Z,132.83
2024-03-12T06:10:08.727Z,133.83
2024-03-12T06:11:14.948Z,164.17
2024-03-12T06:12:19.576Z,180.17
2024-03-12T06:13:23.991Z,176.17
2024-03-12T06:14:27.052Z,156.83
2024-03-12T06:15:32.779Z,125.00
2024-03-12T06:16:36.053Z,105.17
2024-03-12T06:17:39.131Z,107.33
2024-03-12T06:18:42.271Z,92.83
2024-03-12T06:19:45.346Z,70.50
2024-03-12T06:20:48.708Z,74.50
2024-03-12T06:21:52.375Z,70.50
2024-03-12T06:22:55.532Z,81.33
2024-03-12T06:23:58.657Z,88.83
2024-03-12T06:25:02.195Z,93.00
2024-03-12T06:26:05.697Z,109.83
2024-03-12T06:27:09.250Z,136.17
2024-03-12T06:28:13.020Z,137.33
2024-03-12T06:29:16.132Z,126.00
2024-03-12T06:30:19.833Z,114.50
2024-03-12T06:31:23.851Z,90.67
2024-03-12T06:32:32.577Z,75.50
2024-03-12T06:33:36.644Z,80.33
2024-03-12T06:34:39.918Z,75.67
2024-03-12T06:35:43.010Z,81.83
2024-03-12T06:36:50.917Z,97.83
2024-03-12T06:37:54.019Z,130.17
2024-03-12T06:38:57.078Z,124.83
2024-03-12T06:40:00.262Z,116.50
2024-03-12T06:41:06.757Z,81.33
2024-03-12T06:42:15.654Z,75.33
2024-03-12T06:43:19.914Z,225.00
2024-03-12T06:44:26.945Z,307.67
2024-03-12T06:45:30.439Z,293.33
2024-03-12T06:46:33.648Z,205.67
2024-03-12T06:47:41.382Z,124.50
2024-03-12T06:48:45.212Z,100.00
2024-03-12T06:49:48.952Z,95.00
2024-03-12T06:50:52.117Z,95.50
2024-03-12T06:51:55.860Z,246.17
2024-03-12T06:52:58.953Z,243.33
2024-03-12T06:54:02.042Z,265.83
2024-03-12T06:55:06.303Z,156.67
2024-03-12T06:56:09.724Z,82.33
2024-03-12T06:57:13.076Z,78.17
2024-03-12T06:58:20.352Z,176.17
2024-03-12T06:59:23.675Z,249.33
2024-03-12T07:00:41.583Z,179.50
2024-03-12T07:01:46.630Z,123.83
2024-03-12T07:02:51.078Z,75.67
2024-03-12T07:03:58.639Z,51.67
2024-03-12T07:05:04.136Z,38.17
2024-03-12T07:06:08.802Z,29.83
2024-03-12T07:07:14.657Z,24.00
2024-03-12T07:08:19.291Z,25.50
2024-03-12T07:09:28.284Z,34.17
2024-03-12T07:10:31.525Z,35.83
2024-03-12T07:11:35.584Z,31.67
2024-03-12T07:12:38.973Z,38.00
2024-03-12T07:13:44.080Z,46.17
2024-03-12T07:14:56.048Z,53.83
2024-03-12T07:16:01.441Z,56.50
2024-03-12T07:17:05.407Z,55.67
2024-03-12T07:18:09.239Z,49.83
2024-03-12T07:19:12.605Z,46.17
2024-03-12T07:20:21.679Z,45.50
2024-03-12T07:21:26.482Z,44.50
2024-03-12T07:22:29.565Z,44.17
2024-03-12T07:23:32.626Z,46.67
2024-03-12T07:24:36.749Z,48.50
2024-03-12T07:25:39.875Z,37.17
2024-03-12T07:26:48.143Z,35.17
2024-03-12T07:27:51.369Z,28.50
2024-03-12T07:28:54.760Z,22.67
2024-03-12T07:29:57.829Z,27.33
2024-03-12T07:31:00.930Z,29.33
2024-03-12T07:32:06.178Z,30.50
2024-03-12T07:33:09.338Z,32.00
2024-03-12T07:35:15.599Z,36.00
2024-03-12T07:36:18.675Z,26.83
2024-03-12T07:37:22.215Z,10.00
2024-03-12T07:38:25.519Z,5.33
2024-03-12T07:39:39.408Z,3.50
2024-03-12T07:40:44.932Z,2.00
2024-03-12T07:41:48.741Z,1.17
2024-03-12T07:42:51.810Z,2.17
2024-03-12T07:43:55.067Z,3.33
2024-03-12T07:44:58.422Z,4.00
2024-03-12T07:46:03.340Z,4.00
2024-03-12T07:47:06.689Z,5.33
2024-03-12T07:48:10.090Z,6.50
2024-03-12T07:49:14.042Z,7.00
2024-03-12T07:50:17.146Z,7.00
2024-03-12T07:51:20.388Z,7.00
2024-03-12T07:52:23.426Z,7.00
2024-03-12T07:53:31.091Z,7.00
2024-03-12T07:54:34.778Z,33.17
2024-03-12T07:55:38.140Z,42.83
2024-03-12T07:56:42.566Z,31.67
2024-03-12T07:57:45.648Z,28.17
2024-03-12T07:58:49.531Z,17.50
2024-03-12T07:59:53.494Z,8.83
2024-03-12T08:00:56.850Z,5.00
2024-03-12T08:02:00.229Z,3.33
2024-03-12T08:03:03.395Z,3.00
2024-03-12T08:04:06.549Z,3.00
2024-03-12T08:05:09.775Z,3.00
2024-03-12T08:06:12.840Z,3.00
2024-03-12T08:07:16.278Z,3.50
2024-03-12T08:08:20.278Z,4.00
2024-03-12T08:09:24.434Z,4.50
2024-03-12T08:10:27.590Z,5.00
2024-03-12T08:11:31.584Z,5.00
2024-03-12T08:12:34.876Z,5.00
2024-03-12T08:13:38.009Z,5.00
2024-03-12T08:14:41.532Z,5.50
2024-03-12T08:15:45.854Z,7.00
2024-03-12T08:16:50.373Z,12.00
2024-03-12T08:17:57.306Z,16.17
2024-03-12T08:19:02.995Z,16.00
2024-03-12T08:20:07.384Z,17.00
2024-03-12T08:21:10.613Z,17.67
2024-03-12T08:22:13.766Z,16.67
2024-03-12T08:23:16.955Z,15.50
2024-03-12T08:24:20.841Z,15.00
2024-03-12T08:25:23.966Z,15.00
2024-03-12T08:26:32.853Z,15.83
2024-03-12T08:27:35.956Z,17.00
2024-03-12T08:28:39.189Z,19.67
2024-03-12T08:29:42.235Z,19.33
2024-03-12T08:30:48.993Z,18.33
2024-03-12T08:31:59.378Z,15.17
2024-03-12T08:33:05.372Z,11.67
2024-03-12T08:34:10.694Z,9.50
2024-03-12T08:35:13.783Z,8.00
2024-03-12T08:36:17.674Z,7.00
2024-03-12T08:37:23.690Z,7.00
2024-03-12T08:38:29.918Z,6.50
2024-03-12T08:39:33.014Z,6.00
2024-03-12T08:40:36.261Z,6.00
2024-03-12T08:41:42.995Z,6.33
2024-03-12T08:42:54.066Z,7.00
2024-03-12T08:44:04.847Z,7.00
2024-03-12T08:45:11.197Z,7.00
2024-03-12T08:46:14.277Z,7.67
2024-03-12T08:47:19.586Z,9.67
2024-03-12T08:48:22.855Z,13.83
2024-03-12T08:49:25.915Z,20.67
2024-03-12T08:50:28.989Z,22.17
2024-03-12T08:51:36.958Z,20.67
2024-03-12T08:52:40.060Z,19.33
2024-03-12T08:53:43.182Z,19.00
2024-03-12T08:54:46.276Z,18.00
2024-03-12T08:55:49.343Z,17.17
2024-03-12T08:56:52.656Z,17.67
2024-03-12T08:57:55.853Z,18.67
2024-03-12T08:58:59.596Z,19.00
2024-03-12T09:00:03.245Z,19.00
2024-03-12T09:01:06.511Z,18.83
2024-03-12T09:02:10.165Z,17.50
2024-03-12T09:03:13.332Z,16.00
2024-03-12T09:04:16.780Z,15.00
2024-03-12T09:05:20.829Z,15.00
2024-03-12T09:06:23.914Z,15.00
2024-03-12T09:07:27.168Z,15.00
2024-03-12T09:08:30.932Z,14.83
2024-03-12T09:09:34.251Z,14.00
2024-03-12T09:10:40.305Z,12.67
2024-03-12T09:11:43.713Z,12.00
2024-03-12T09:12:46.792Z,14.67
2024-03-12T09:13:49.981Z,58.00
2024-03-12T09:14:53.884Z,38.67
2024-03-12T09:15:57.993Z,34.67
2024-03-12T09:17:01.257Z,29.83
2024-03-12T09:18:07.860Z,19.50
2024-03-12T09:19:11.164Z,10.67
2024-03-12T09:20:14.244Z,6.67
2024-03-12T09:21:18.419Z,7.00
2024-03-12T09:22:23.920Z,8.50
2024-03-12T09:23:30.473Z,9.50
2024-03-12T09:24:33.643Z,31.50
2024-03-12T09:25:37.652Z,137.67
2024-03-12T09:26:40.773Z,139.00
2024-03-12T09:27:43.848Z,81.67
2024-03-12T09:28:47.969Z,83.67
2024-03-12T09:29:51.014Z,47.33
2024-03-12T09:30:55.645Z,18.33
2024-03-12T09:32:00.325Z,12.33
2024-03-12T09:33:03.838Z,10.67
2024-03-12T09:34:08.005Z,11.50
2024-03-12T09:35:11.463Z,12.00
2024-03-12T09:36:15.758Z,13.67
2024-03-12T09:37:19.427Z,15.00
2024-03-12T09:38:22.965Z,13.83
2024-03-12T09:39:26.030Z,12.33
2024-03-12T09:40:29.771Z,12.17
2024-03-12T09:41:35.296Z,13.67
2024-03-12T09:42:39.320Z,15.00
2024-03-12T09:43:45.170Z,15.00
2024-03-12T09:44:49.634Z,15.17
2024-03-12T09:45:52.839Z,16.00
2024-03-12T09:46:56.539Z,23.17
2024-03-12T09:48:00.289Z,58.33
2024-03-12T09:49:03.962Z,72.33
2024-03-12T09:50:12.615Z,65.00
2024-03-12T09:51:16.220Z,73.00
2024-03-12T09:52:19.295Z,88.00
2024-03-12T09:53:22.418Z,188.33
2024-03-12T09:54:28.442Z,168.83
2024-03-12T09:55:33.168Z,118.83
2024-03-12T09:56:36.718Z,81.33
2024-03-12T09:57:40.010Z,44.83
2024-03-12T09:58:44.502Z,37.83
2024-03-12T09:59:47.548Z,34.67
2024-03-12T10:00:51.192Z,31.00
2024-03-12T10:01:54.547Z,23.17
2024-03-12T10:03:00.986Z,21.83
2024-03-12T10:04:05.862Z,20.33
2024-03-12T10:05:13.697Z,17.50
2024-03-12T10:06:18.017Z,15.33
2024-03-12T10:07:21.272Z,11.50
2024-03-12T10:08:29.613Z,10.17
2024-03-12T10:09:32.893Z,9.00
2024-03-12T10:10:52.932Z,9.67
2024-03-12T10:11:56.793Z,10.83
2024-03-12T10:13:00.648Z,11.67
2024-03-12T10:14:07.428Z,9.83
2024-03-12T10:15:15.986Z,9.00
2024-03-12T10:16:20.177Z,9.00
2024-03-12T10:17:24.054Z,9.00
2024-03-12T10:18:29.859Z,9.33
2024-03-12T10:19:33.496Z,10.17
2024-03-12T10:20:57.573Z,11.17
2024-03-12T10:22:10.794Z,14.50
2024-03-12T10:23:17.044Z,18.50
2024-03-12T10:24:22.998Z,20.83
2024-03-12T10:25:26.284Z,22.00
2024-03-12T10:26:30.616Z,22.67
2024-03-12T10:27:33.724Z,23.00
2024-03-12T10:28:38.936Z,23.00
2024-03-12T10:29:42.542Z,22.17
2024-03-12T10:30:47.126Z,21.33
2024-03-12T10:31:51.413Z,21.17
2024-03-12T10:32:55.122Z,23.83
2024-03-12T10:34:11.304Z,39.50
2024-03-12T10:35:23.096Z,67.00
2024-03-12T10:36:34.379Z,57.67
2024-03-12T10:37:39.761Z,47.17
2024-03-12T10:38:44.245Z,42.67
2024-03-12T10:39:47.400Z,37.50
2024-03-12T10:40:50.457Z,33.67
2024-03-12T10:42:01.553Z,31.67
2024-03-12T10:43:07.257Z,29.83
2024-03-12T10:44:12.261Z,29.00
2024-03-12T10:45:17.471Z,28.00
2024-03-12T10:46:22.468Z,28.00
2024-03-12T10:47:25.856Z,28.00
2024-03-12T10:48:29.014Z,28.00
2024-03-12T10:49:32.244Z,29.00
2024-03-12T10:50:36.532Z,34.33
2024-03-12T10:51:46.490Z,39.00
2024-03-12T10:52:51.657Z,38.50
2024-03-12T10:53:55.330Z,38.50
2024-03-12T10:55:05.732Z,37.83
2024-03-12T10:56:15.876Z,36.17
2024-03-12T10:57:19.377Z,35.50
2024-03-12T10:58:24.862Z,36.00
2024-03-12T10:59:32.869Z,35.83
2024-03-12T11:00:40.911Z,33.50
2024-03-12T11:01:44.963Z,33.00
2024-03-12T11:02:51.532Z,32.67
2024-03-12T11:04:00.138Z,31.33
2024-03-12T11:05:04.316Z,29.67
2024-03-12T11:06:10.005Z,29.67
2024-03-12T11:07:13.599Z,29.67
2024-03-12T11:08:17.876Z,28.50
2024-03-12T11:09:29.996Z,26.50
2024-03-12T11:10:34.257Z,25.00
2024-03-12T11:11:38.062Z,41.00
2024-03-12T11:12:44.403Z,150.17
2024-03-12T11:13:51.103Z,92.50
2024-03-12T11:14:57.316Z,86.67
2024-03-12T11:16:11.472Z,171.83
2024-03-12T11:17:28.859Z,176.00
2024-03-12T11:18:36.061Z,121.50
2024-03-12T11:19:39.150Z,103.50
2024-03-12T11:20:43.088Z,73.33
2024-03-12T11:21:48.968Z,37.33
2024-03-12T11:22:57.958Z,31.50
2024-03-12T11:24:01.232Z,28.00
2024-03-12T11:25:10.294Z,24.83
2024-03-12T11:26:16.313Z,22.50
2024-03-12T11:27:26.798Z,23.00
2024-03-12T11:28:29.996Z,24.17
2024-03-12T11:30:13.139Z,33.50
2024-03-12T11:31:16.438Z,59.50
2024-03-12T11:32:20.242Z,83.00
2024-03-12T11:33:52.971Z,100.00
2024-03-12T11:34:57.695Z,77.17
2024-03-12T11:36:00.844Z,57.67
2024-03-12T11:37:18.242Z,36.67
2024-03-12T11:38:31.157Z,30.83
2024-03-12T11:39:35.055Z,27.67
2024-03-12T11:40:41.196Z,25.33
2024-03-12T11:42:02.441Z,21.00
2024-03-12T11:43:06.067Z,19.50
2024-03-12T11:44:10.587Z,20.17
2024-03-12T11:45:46.788Z,25.00
2024-03-12T11:46:53.049Z,27.00
2024-03-12T11:47:56.832Z,27.00
2024-03-12T11:49:00.481Z,26.67
2024-03-12T11:50:09.147Z,24.50
2024-03-12T11:51:15.404Z,23.00
2024-03-12T11:52:25.128Z,26.83
2024-03-12T11:53:36.821Z,48.67
2024-03-12T11:54:48.450Z,62.17
2024-03-12T11:56:09.726Z,69.50
2024-03-12T11:57:26.737Z,58.00
2024-03-12T11:58:33.148Z,53.50
2024-03-12T11:59:37.029Z,47.50
2024-03-12T12:00:40.323Z,43.67
2024-03-12T12:01:44.162Z,43.00
2024-03-12T12:02:49.922Z,44.50
2024-03-12T12:04:09.055Z,50.17
2024-03-12T12:05:14.527Z,56.83
2024-03-12T12:06:20.897Z,71.50
2024-03-12T12:07:27.162Z,95.83
2024-03-12T12:08:39.582Z,130.50
2024-03-12T12:09:51.586Z,124.00
2024-03-12T12:11:10.970Z,104.83
2024-03-12T12:12:15.546Z,92.50
2024-03-12T12:13:18.622Z,90.00
2024-03-12T12:14:23.437Z,94.50
2024-03-12T12:15:30.506Z,122.00
2024-03-12T12:16:33.803Z,143.17
2024-03-12T12:17:36.925Z,166.67
2024-03-12T12:18:41.636Z,173.50
2024-03-12T12:19:45.385Z,181.50
2024-03-12T12:20:48.481Z,172.83
2024-03-12T12:21:53.036Z,167.00
2024-03-12T12:22:56.926Z,179.67
2024-03-12T12:24:03.689Z,191.00
2024-03-12T12:25:08.010Z,193.50
2024-03-12T12:26:19.942Z,202.67
2024-03-12T12:27:23.864Z,210.33
2024-03-12T12:28:28.073Z,244.17
2024-03-12T12:29:32.078Z,263.00
2024-03-12T12:30:36.933Z,264.17
2024-03-12T12:31:42.845Z,242.17
2024-03-12T12:32:46.816Z,213.33
2024-03-12T12:33:57.029Z,174.50
2024-03-12T12:35:01.376Z,152.17
2024-03-12T12:36:10.155Z,136.50
2024-03-12T12:37:13.341Z,143.83
2024-03-12T12:38:17.979Z,150.83
2024-03-12T12:39:24.976Z,154.00
2024-03-12T12:40:32.914Z,141.67
2024-03-12T12:41:36.487Z,141.50
2024-03-12T12:42:40.015Z,141.00
2024-03-12T12:43:45.869Z,146.33
2024-03-12T12:44:55.317Z,149.00
2024-03-12T12:45:58.748Z,161.33
2024-03-12T12:47:04.308Z,172.83
2024-03-12T12:48:08.992Z,172.83
2024-03-12T12:49:14.403Z,167.33
2024-03-12T12:50:31.428Z,138.17
2024-03-12T12:51:39.087Z,117.17
2024-03-12T12:52:42.192Z,111.50
2024-03-12T12:53:46.555Z,92.33
2024-03-12T12:54:50.198Z,78.00
2024-03-12T12:56:02.549Z,72.83
2024-03-12T12:57:05.860Z,81.50
2024-03-12T12:58:09.602Z,94.17
2024-03-12T12:59:18.287Z,101.33
2024-03-12T13:00:25.114Z,104.67
2024-03-12T13:01:28.740Z,106.67
2024-03-12T13:02:31.823Z,100.83
2024-03-12T13:03:40.963Z,84.50
2024-03-12T13:04:44.043Z,83.83
2024-03-12T13:05:48.300Z,85.83
2024-03-12T13:06:53.371Z,92.17
2024-03-12T13:07:56.511Z,98.00
2024-03-12T13:09:00.892Z,124.50
2024-03-12T13:10:20.036Z,145.33
2024-03-12T13:11:30.121Z,132.33
2024-03-12T13:12:33.367Z,128.67
2024-03-12T13:13:39.384Z,128.33
2024-03-12T13:14:45.666Z,148.17
2024-03-12T13:15:48.777Z,189.33
2024-03-12T13:16:51.833Z,242.67
2024-03-12T13:17:55.594Z,249.50
2024-03-12T13:18:59.103Z,210.00
2024-03-12T13:20:04.959Z,178.67
2024-03-12T13:21:08.435Z,190.83
2024-03-12T13:22:16.471Z,315.50
2024-03-12T13:23:23.088Z,277.00
2024-03-12T13:24:26.167Z,221.17
2024-03-12T13:25:29.629Z,204.00
2024-03-12T13:26:34.273Z,150.67
2024-03-12T13:27:37.355Z,132.00
2024-03-12T13:28:42.378Z,127.83
2024-03-12T13:29:45.424Z,136.00
2024-03-12T13:30:52.392Z,127.83
2024-03-12T13:31:55.495Z,112.00
2024-03-12T13:32:58.763Z,109.00
2024-03-12T13:34:01.911Z,108.33
2024-03-12T13:35:05.200Z,117.33
2024-03-12T13:36:11.383Z,120.00
2024-03-12T13:37:14.607Z,120.83
2024-03-12T13:38:17.839Z,112.83
2024-03-12T13:39:21.137Z,107.50
2024-03-12T13:40:24.340Z,105.67
2024-03-12T13:41:27.471Z,110.83
2024-03-12T13:42:30.825Z,113.67
2024-03-12T13:43:34.401Z,113.33
2024-03-12T13:44:38.478Z,101.83
2024-03-12T13:45:45.216Z,86.83
2024-03-12T13:46:48.285Z,80.17
2024-03-12T13:47:51.410Z,68.00
2024-03-12T13:49:19.166Z,68.67
2024-03-12T13:50:22.392Z,85.00
2024-03-12T13:51:25.778Z,79.83
2024-03-12T13:52:30.777Z,67.00
2024-03-12T13:53:34.224Z,69.83
2024-03-12T13:54:37.775Z,77.17
2024-03-12T13:55:40.895Z,81.17
2024-03-12T13:56:46.429Z,79.83
2024-03-12T13:57:49.733Z,71.83